sensor_id;sensor_type;location;lat;lon;timestamp;temperature;humidity
63051;SHT30;49136;47.416;19.402;2024-01-07T00:00:16;5.99;99.99
63051;SHT30;49136;47.416;19.402;2024-01-07T00:02:41;6.01;99.99
63051;SHT30;49136;47.416;19.402;2024-01-07T00:05:07;5.97;99.99
63051;SHT30;49136;47.416;19.402;2024-01-07T00:07:32;5.94;99.99
63051;SHT30;49136;47.416;19.402;2024-01-07T00:09:58;6.01;99.99
63051;SHT30;49136;47.416;19.402;2024-01-07T00:12:23;6.02;99.99
63051;SHT30;49136;47.416;19.402;2024-01-07T00:14:50;5.95;99.99
63051;SHT30;49136;47.416;19.402;2024-01-07T00:17:15;6.01;99.99
63051;SHT30;49136;47.416;19.402;2024-01-07T00:19:41;6.06;99.99
63051;SHT30;49136;47.416;19.402;2024-01-07T00:22:07;5.99;99.99
63051;SHT30;49136;47.416;19.402;2024-01-07T00:24:32;6.11;99.99
63051;SHT30;49136;47.416;19.402;2024-01-07T00:26:57;6.02;99.99
63051;SHT30;49136;47.416;19.402;2024-01-07T00:29:23;6.01;99.99
63051;SHT30;49136;47.416;19.402;2024-01-07T00:31:48;6.04;99.99
63051;SHT30;49136;47.416;19.402;2024-01-07T00:34:14;6.05;99.99
63051;SHT30;49136;47.416;19.402;2024-01-07T00:36:39;6.06;99.99
63051;SHT30;49136;47.416;19.402;2024-01-07T00:39:05;6.02;99.99
63051;SHT30;49136;47.416;19.402;2024-01-07T00:41:31;6.01;99.99
63051;SHT30;49136;47.416;19.402;2024-01-07T00:43:56;6.06;99.99
63051;SHT30;49136;47.416;19.402;2024-01-07T00:46:22;6.08;99.99
63051;SHT30;49136;47.416;19.402;2024-01-07T00:48:48;6.05;99.99
63051;SHT30;49136;47.416;19.402;2024-01-07T00:51:13;6.08;99.99
63051;SHT30;49136;47.416;19.402;2024-01-07T00:53:39;6.06;99.99
63051;SHT30;49136;47.416;19.402;2024-01-07T00:56:05;6.09;99.99
63051;SHT30;49136;47.416;19.402;2024-01-07T00:58:30;6.08;99.99
63051;SHT30;49136;47.416;19.402;2024-01-07T01:00:56;6.09;99.99
63051;SHT30;49136;47.416;19.402;2024-01-07T01:03:21;6.09;99.99
63051;SHT30;49136;47.416;19.402;2024-01-07T01:05:46;6.05;99.99
63051;SHT30;49136;47.416;19.402;2024-01-07T01:08:12;6.05;99.99
63051;SHT30;49136;47.416;19.402;2024-01-07T01:10:37;6.01;99.99
63051;SHT30;49136;47.416;19.402;2024-01-07T01:13:03;6.05;99.99
63051;SHT30;49136;47.416;19.402;2024-01-07T01:15:29;6.02;99.99
63051;SHT30;49136;47.416;19.402;2024-01-07T01:17:54;6.08;99.99
63051;SHT30;49136;47.416;19.402;2024-01-07T01:20:19;6.05;99.99
63051;SHT30;49136;47.416;19.402;2024-01-07T01:22:45;6.06;99.99
63051;SHT30;49136;47.416;19.402;2024-01-07T01:25:10;6.11;99.99
63051;SHT30;49136;47.416;19.402;2024-01-07T01:27:36;6.05;99.99
63051;SHT30;49136;47.416;19.402;2024-01-07T01:30:02;6.08;99.99
63051;SHT30;49136;47.416;19.402;2024-01-07T01:32:27;6.06;99.99
63051;SHT30;49136;47.416;19.402;2024-01-07T01:34:53;6.08;99.99
63051;SHT30;49136;47.416;19.402;2024-01-07T01:37:18;6.05;99.99
63051;SHT30;49136;47.416;19.402;2024-01-07T01:39:43;6.09;99.99
63051;SHT30;49136;47.416;19.402;2024-01-07T01:42:09;6.14;99.99
63051;SHT30;49136;47.416;19.402;2024-01-07T01:44:34;6.08;99.99
63051;SHT30;49136;47.416;19.402;2024-01-07T01:47:00;6.09;99.99
63051;SHT30;49136;47.416;19.402;2024-01-07T01:49:27;6.09;99.99
63051;SHT30;49136;47.416;19.402;2024-01-07T01:51:53;6.09;99.99
63051;SHT30;49136;47.416;19.402;2024-01-07T01:54:19;6.12;99.99
63051;SHT30;49136;47.416;19.402;2024-01-07T01:56:45;6.12;99.99
63051;SHT30;49136;47.416;19.402;2024-01-07T01:59:11;6.12;99.99
63051;SHT30;49136;47.416;19.402;2024-01-07T02:01:37;6.11;99.99
63051;SHT30;49136;47.416;19.402;2024-01-07T02:04:03;6.09;99.99
63051;SHT30;49136;47.416;19.402;2024-01-07T02:06:28;6.12;99.99
63051;SHT30;49136;47.416;19.402;2024-01-07T02:08:54;6.15;99.99
63051;SHT30;49136;47.416;19.402;2024-01-07T02:11:22;6.11;99.99
63051;SHT30;49136;47.416;19.402;2024-01-07T02:13:48;6.09;99.99
63051;SHT30;49136;47.416;19.402;2024-01-07T02:16:14;6.12;99.99
63051;SHT30;49136;47.416;19.402;2024-01-07T02:18:41;6.15;99.99
63051;SHT30;49136;47.416;19.402;2024-01-07T02:21:08;6.14;99.99
63051;SHT30;49136;47.416;19.402;2024-01-07T02:23:35;6.14;99.99
63051;SHT30;49136;47.416;19.402;2024-01-07T02:26:01;6.14;99.99
63051;SHT30;49136;47.416;19.402;2024-01-07T02:28:27;6.11;99.99
63051;SHT30;49136;47.416;19.402;2024-01-07T02:30:52;6.11;99.99
63051;SHT30;49136;47.416;19.402;2024-01-07T02:33:17;6.16;99.99
63051;SHT30;49136;47.416;19.402;2024-01-07T02:35:43;6.14;99.99
63051;SHT30;49136;47.416;19.402;2024-01-07T02:38:08;6.16;99.99
63051;SHT30;49136;47.416;19.402;2024-01-07T02:40:34;6.12;99.99
63051;SHT30;49136;47.416;19.402;2024-01-07T02:42:59;6.16;99.99
63051;SHT30;49136;47.416;19.402;2024-01-07T02:45:25;6.14;99.99
63051;SHT30;49136;47.416;19.402;2024-01-07T02:47:50;6.12;99.99
63051;SHT30;49136;47.416;19.402;2024-01-07T02:50:16;6.12;99.99
63051;SHT30;49136;47.416;19.402;2024-01-07T02:52:42;6.14;99.99
63051;SHT30;49136;47.416;19.402;2024-01-07T02:55:08;6.14;99.99
63051;SHT30;49136;47.416;19.402;2024-01-07T02:57:33;6.14;99.99
63051;SHT30;49136;47.416;19.402;2024-01-07T02:59:58;6.12;99.99
63051;SHT30;49136;47.416;19.402;2024-01-07T03:02:24;6.14;99.99
63051;SHT30;49136;47.416;19.402;2024-01-07T03:04:49;6.18;99.99
63051;SHT30;49136;47.416;19.402;2024-01-07T03:07:15;6.21;99.99
63051;SHT30;49136;47.416;19.402;2024-01-07T03:09:40;6.22;99.99
63051;SHT30;49136;47.416;19.402;2024-01-07T03:12:06;6.18;99.99
63051;SHT30;49136;47.416;19.402;2024-01-07T03:14:31;6.23;99.99
63051;SHT30;49136;47.416;19.402;2024-01-07T03:16:56;6.22;99.99
63051;SHT30;49136;47.416;19.402;2024-01-07T03:19:22;6.23;99.99
63051;SHT30;49136;47.416;19.402;2024-01-07T03:21:50;6.23;99.99
63051;SHT30;49136;47.416;19.402;2024-01-07T03:24:16;6.25;99.99
63051;SHT30;49136;47.416;19.402;2024-01-07T03:26:41;6.26;99.99
63051;SHT30;49136;47.416;19.402;2024-01-07T03:29:07;6.29;99.99
63051;SHT30;49136;47.416;19.402;2024-01-07T03:31:33;6.25;99.99
63051;SHT30;49136;47.416;19.402;2024-01-07T03:33:58;6.33;99.99
63051;SHT30;49136;47.416;19.402;2024-01-07T03:36:23;6.25;99.99
63051;SHT30;49136;47.416;19.402;2024-01-07T03:38:49;6.33;99.99
63051;SHT30;49136;47.416;19.402;2024-01-07T03:41:18;6.29;99.99
63051;SHT30;49136;47.416;19.402;2024-01-07T03:43:44;6.32;99.99
63051;SHT30;49136;47.416;19.402;2024-01-07T03:46:10;6.33;99.99
63051;SHT30;49136;47.416;19.402;2024-01-07T03:48:35;6.30;99.99
63051;SHT30;49136;47.416;19.402;2024-01-07T03:51:01;6.32;99.99
63051;SHT30;49136;47.416;19.402;2024-01-07T03:53:26;6.32;99.99
63051;SHT30;49136;47.416;19.402;2024-01-07T03:55:51;6.36;99.99
63051;SHT30;49136;47.416;19.402;2024-01-07T03:58:17;6.34;99.99
63051;SHT30;49136;47.416;19.402;2024-01-07T04:00:42;6.32;99.99
63051;SHT30;49136;47.416;19.402;2024-01-07T04:03:08;6.33;99.99
63051;SHT30;49136;47.416;19.402;2024-01-07T04:05:33;6.36;99.99
63051;SHT30;49136;47.416;19.402;2024-01-07T04:08:00;6.32;99.99
63051;SHT30;49136;47.416;19.402;2024-01-07T04:10:26;6.33;99.99
63051;SHT30;49136;47.416;19.402;2024-01-07T04:12:52;6.36;99.99
63051;SHT30;49136;47.416;19.402;2024-01-07T04:15:17;6.37;99.99
63051;SHT30;49136;47.416;19.402;2024-01-07T04:17:42;6.37;99.99
63051;SHT30;49136;47.416;19.402;2024-01-07T04:20:08;6.37;99.99
63051;SHT30;49136;47.416;19.402;2024-01-07T04:22:34;6.39;99.99
63051;SHT30;49136;47.416;19.402;2024-01-07T04:24:59;6.41;99.99
63051;SHT30;49136;47.416;19.402;2024-01-07T04:27:24;6.39;99.99
63051;SHT30;49136;47.416;19.402;2024-01-07T04:29:50;6.37;99.99
63051;SHT30;49136;47.416;19.402;2024-01-07T04:32:16;6.39;99.99
63051;SHT30;49136;47.416;19.402;2024-01-07T04:34:41;6.36;99.99
63051;SHT30;49136;47.416;19.402;2024-01-07T04:37:06;6.46;99.99
63051;SHT30;49136;47.416;19.402;2024-01-07T04:39:32;6.43;99.99
63051;SHT30;49136;47.416;19.402;2024-01-07T04:41:57;6.43;99.99
63051;SHT30;49136;47.416;19.402;2024-01-07T04:44:23;6.41;99.99
63051;SHT30;49136;47.416;19.402;2024-01-07T04:46:48;6.47;99.99
63051;SHT30;49136;47.416;19.402;2024-01-07T04:49:14;6.44;99.99
63051;SHT30;49136;47.416;19.402;2024-01-07T04:51:40;6.49;99.99
63051;SHT30;49136;47.416;19.402;2024-01-07T04:54:05;6.49;99.99
63051;SHT30;49136;47.416;19.402;2024-01-07T04:56:31;6.56;99.99
63051;SHT30;49136;47.416;19.402;2024-01-07T04:58:57;6.54;99.99
63051;SHT30;49136;47.416;19.402;2024-01-07T05:01:22;6.56;99.99
63051;SHT30;49136;47.416;19.402;2024-01-07T05:03:48;6.53;99.99
63051;SHT30;49136;47.416;19.402;2024-01-07T05:06:13;6.58;99.99
63051;SHT30;49136;47.416;19.402;2024-01-07T05:08:40;6.56;99.99
63051;SHT30;49136;47.416;19.402;2024-01-07T05:11:06;6.57;99.99
63051;SHT30;49136;47.416;19.402;2024-01-07T05:13:32;6.57;99.99
63051;SHT30;49136;47.416;19.402;2024-01-07T05:15:57;6.61;99.99
63051;SHT30;49136;47.416;19.402;2024-01-07T05:18:23;6.61;99.99
63051;SHT30;49136;47.416;19.402;2024-01-07T05:20:49;6.63;99.99
63051;SHT30;49136;47.416;19.402;2024-01-07T05:23:15;6.61;99.99
63051;SHT30;49136;47.416;19.402;2024-01-07T05:25:42;6.61;99.99
63051;SHT30;49136;47.416;19.402;2024-01-07T05:28:08;6.64;99.99
63051;SHT30;49136;47.416;19.402;2024-01-07T05:30:33;6.63;99.99
63051;SHT30;49136;47.416;19.402;2024-01-07T05:32:59;6.65;99.99
63051;SHT30;49136;47.416;19.402;2024-01-07T05:35:24;6.64;99.99
63051;SHT30;49136;47.416;19.402;2024-01-07T05:37:50;6.67;99.99
63051;SHT30;49136;47.416;19.402;2024-01-07T05:40:15;6.68;99.99
63051;SHT30;49136;47.416;19.402;2024-01-07T05:42:43;6.68;99.99
63051;SHT30;49136;47.416;19.402;2024-01-07T05:45:08;6.68;99.99
63051;SHT30;49136;47.416;19.402;2024-01-07T05:47:34;6.71;99.99
63051;SHT30;49136;47.416;19.402;2024-01-07T05:49:59;6.68;99.99
63051;SHT30;49136;47.416;19.402;2024-01-07T05:52:25;6.71;99.99
63051;SHT30;49136;47.416;19.402;2024-01-07T05:54:50;6.70;99.99
63051;SHT30;49136;47.416;19.402;2024-01-07T05:57:15;6.73;99.99
63051;SHT30;49136;47.416;19.402;2024-01-07T05:59:43;6.74;99.99
63051;SHT30;49136;47.416;19.402;2024-01-07T06:02:09;6.74;99.99
63051;SHT30;49136;47.416;19.402;2024-01-07T06:04:34;6.71;99.99
63051;SHT30;49136;47.416;19.402;2024-01-07T06:07:00;6.70;99.99
63051;SHT30;49136;47.416;19.402;2024-01-07T06:09:25;6.70;99.99
63051;SHT30;49136;47.416;19.402;2024-01-07T06:11:51;6.73;99.99
63051;SHT30;49136;47.416;19.402;2024-01-07T06:14:16;6.70;99.99
63051;SHT30;49136;47.416;19.402;2024-01-07T06:16:41;6.68;99.99
63051;SHT30;49136;47.416;19.402;2024-01-07T06:19:07;6.73;99.99
63051;SHT30;49136;47.416;19.402;2024-01-07T06:21:37;6.73;99.99
63051;SHT30;49136;47.416;19.402;2024-01-07T06:24:03;6.75;99.99
63051;SHT30;49136;47.416;19.402;2024-01-07T06:26:29;6.73;99.99
63051;SHT30;49136;47.416;19.402;2024-01-07T06:28:54;6.73;99.99
63051;SHT30;49136;47.416;19.402;2024-01-07T06:31:20;6.73;99.99
63051;SHT30;49136;47.416;19.402;2024-01-07T06:33:45;6.74;99.99
63051;SHT30;49136;47.416;19.402;2024-01-07T06:36:11;6.77;99.99
63051;SHT30;49136;47.416;19.402;2024-01-07T06:38:36;6.74;99.99
63051;SHT30;49136;47.416;19.402;2024-01-07T06:41:01;6.74;99.99
63051;SHT30;49136;47.416;19.402;2024-01-07T06:43:30;6.71;99.99
63051;SHT30;49136;47.416;19.402;2024-01-07T06:45:55;6.74;99.99
63051;SHT30;49136;47.416;19.402;2024-01-07T06:48:20;6.74;99.99
63051;SHT30;49136;47.416;19.402;2024-01-07T06:50:46;6.75;99.99
63051;SHT30;49136;47.416;19.402;2024-01-07T06:53:11;6.74;99.99
63051;SHT30;49136;47.416;19.402;2024-01-07T06:55:37;6.75;99.99
63051;SHT30;49136;47.416;19.402;2024-01-07T06:58:02;6.75;99.99
63051;SHT30;49136;47.416;19.402;2024-01-07T07:00:28;6.71;99.99
63051;SHT30;49136;47.416;19.402;2024-01-07T07:02:53;6.74;99.99
63051;SHT30;49136;47.416;19.402;2024-01-07T07:05:19;6.77;99.99
63051;SHT30;49136;47.416;19.402;2024-01-07T07:07:44;6.75;99.99
63051;SHT30;49136;47.416;19.402;2024-01-07T07:10:10;6.77;99.99
63051;SHT30;49136;47.416;19.402;2024-01-07T07:12:36;6.78;99.99
63051;SHT30;49136;47.416;19.402;2024-01-07T07:15:01;6.78;99.99
63051;SHT30;49136;47.416;19.402;2024-01-07T07:17:27;6.87;99.99
63051;SHT30;49136;47.416;19.402;2024-01-07T07:19:52;6.85;99.99
63051;SHT30;49136;47.416;19.402;2024-01-07T07:22:18;6.81;99.99
63051;SHT30;49136;47.416;19.402;2024-01-07T07:24:43;6.77;99.99
63051;SHT30;49136;47.416;19.402;2024-01-07T07:27:08;6.85;99.99
63051;SHT30;49136;47.416;19.402;2024-01-07T07:29:34;6.88;99.99
63051;SHT30;49136;47.416;19.402;2024-01-07T07:31:59;6.84;99.99
63051;SHT30;49136;47.416;19.402;2024-01-07T07:34:25;6.85;99.99
63051;SHT30;49136;47.416;19.402;2024-01-07T07:36:50;6.82;99.99
63051;SHT30;49136;47.416;19.402;2024-01-07T07:39:16;6.81;99.99
63051;SHT30;49136;47.416;19.402;2024-01-07T07:41:42;6.88;99.99
63051;SHT30;49136;47.416;19.402;2024-01-07T07:44:07;6.85;99.99
63051;SHT30;49136;47.416;19.402;2024-01-07T07:46:33;6.88;99.99
63051;SHT30;49136;47.416;19.402;2024-01-07T07:48:58;6.96;99.99
63051;SHT30;49136;47.416;19.402;2024-01-07T07:51:24;6.92;99.99
63051;SHT30;49136;47.416;19.402;2024-01-07T07:53:49;6.91;99.99
63051;SHT30;49136;47.416;19.402;2024-01-07T07:56:15;6.92;99.99
63051;SHT30;49136;47.416;19.402;2024-01-07T07:58:40;6.98;99.99
63051;SHT30;49136;47.416;19.402;2024-01-07T08:01:05;6.91;99.99
63051;SHT30;49136;47.416;19.402;2024-01-07T08:03:31;6.96;99.99
63051;SHT30;49136;47.416;19.402;2024-01-07T08:05:57;6.98;99.99
63051;SHT30;49136;47.416;19.402;2024-01-07T08:08:27;6.98;99.99
63051;SHT30;49136;47.416;19.402;2024-01-07T08:10:53;7.03;99.99
63051;SHT30;49136;47.416;19.402;2024-01-07T08:13:19;7.06;99.99
63051;SHT30;49136;47.416;19.402;2024-01-07T08:15:46;7.03;99.99
63051;SHT30;49136;47.416;19.402;2024-01-07T08:18:12;7.06;99.99
63051;SHT30;49136;47.416;19.402;2024-01-07T08:20:38;7.06;99.99
63051;SHT30;49136;47.416;19.402;2024-01-07T08:23:03;7.10;99.99
63051;SHT30;49136;47.416;19.402;2024-01-07T08:25:29;7.12;99.99
63051;SHT30;49136;47.416;19.402;2024-01-07T08:27:55;7.15;99.99
63051;SHT30;49136;47.416;19.402;2024-01-07T08:30:21;7.20;99.99
63051;SHT30;49136;47.416;19.402;2024-01-07T08:32:47;7.20;99.99
63051;SHT30;49136;47.416;19.402;2024-01-07T08:35:12;7.19;99.99
63051;SHT30;49136;47.416;19.402;2024-01-07T08:37:37;7.17;99.99
63051;SHT30;49136;47.416;19.402;2024-01-07T08:40:03;7.19;99.99
63051;SHT30;49136;47.416;19.402;2024-01-07T08:42:29;7.22;99.99
63051;SHT30;49136;47.416;19.402;2024-01-07T08:44:57;7.24;99.99
63051;SHT30;49136;47.416;19.402;2024-01-07T08:47:25;7.23;99.99
63051;SHT30;49136;47.416;19.402;2024-01-07T08:49:51;7.19;99.99
63051;SHT30;49136;47.416;19.402;2024-01-07T08:52:18;7.16;99.99
63051;SHT30;49136;47.416;19.402;2024-01-07T08:54:44;7.19;99.99
63051;SHT30;49136;47.416;19.402;2024-01-07T08:57:10;7.17;99.99
63051;SHT30;49136;47.416;19.402;2024-01-07T08:59:35;7.16;99.99
63051;SHT30;49136;47.416;19.402;2024-01-07T09:02:01;7.10;99.99
63051;SHT30;49136;47.416;19.402;2024-01-07T09:04:27;7.22;99.99
63051;SHT30;49136;47.416;19.402;2024-01-07T09:06:53;7.24;99.99
63051;SHT30;49136;47.416;19.402;2024-01-07T09:09:18;7.17;99.99
63051;SHT30;49136;47.416;19.402;2024-01-07T09:11:44;7.26;99.99
63051;SHT30;49136;47.416;19.402;2024-01-07T09:14:09;7.22;99.99
63051;SHT30;49136;47.416;19.402;2024-01-07T09:16:35;7.19;99.99
63051;SHT30;49136;47.416;19.402;2024-01-07T09:19:00;7.23;99.99
63051;SHT30;49136;47.416;19.402;2024-01-07T09:21:26;7.20;99.99
63051;SHT30;49136;47.416;19.402;2024-01-07T09:23:52;7.26;99.99
63051;SHT30;49136;47.416;19.402;2024-01-07T09:26:17;7.33;99.99
63051;SHT30;49136;47.416;19.402;2024-01-07T09:28:43;7.28;99.99
63051;SHT30;49136;47.416;19.402;2024-01-07T09:31:08;7.27;99.99
63051;SHT30;49136;47.416;19.402;2024-01-07T09:33:34;7.35;99.99
63051;SHT30;49136;47.416;19.402;2024-01-07T09:36:00;7.35;99.99
63051;SHT30;49136;47.416;19.402;2024-01-07T09:38:25;7.40;99.99
63051;SHT30;49136;47.416;19.402;2024-01-07T09:40:51;7.41;99.99
63051;SHT30;49136;47.416;19.402;2024-01-07T09:43:17;7.40;99.99
63051;SHT30;49136;47.416;19.402;2024-01-07T09:45:46;7.41;99.99
63051;SHT30;49136;47.416;19.402;2024-01-07T09:48:12;7.38;99.99
63051;SHT30;49136;47.416;19.402;2024-01-07T09:50:37;7.40;99.99
63051;SHT30;49136;47.416;19.402;2024-01-07T09:53:03;7.43;99.99
63051;SHT30;49136;47.416;19.402;2024-01-07T09:58:42;7.46;99.99
63051;SHT30;49136;47.416;19.402;2024-01-07T10:01:08;7.44;99.99
63051;SHT30;49136;47.416;19.402;2024-01-07T10:03:35;7.44;99.99
63051;SHT30;49136;47.416;19.402;2024-01-07T10:06:00;7.48;99.99
63051;SHT30;49136;47.416;19.402;2024-01-07T10:08:25;7.47;99.99
63051;SHT30;49136;47.416;19.402;2024-01-07T10:10:51;7.48;99.99
63051;SHT30;49136;47.416;19.402;2024-01-07T10:13:16;7.52;99.99
63051;SHT30;49136;47.416;19.402;2024-01-07T10:15:42;7.54;99.99
63051;SHT30;49136;47.416;19.402;2024-01-07T10:18:07;7.52;99.99
63051;SHT30;49136;47.416;19.402;2024-01-07T10:20:34;7.57;99.99
63051;SHT30;49136;47.416;19.402;2024-01-07T10:23:01;7.55;99.99
63051;SHT30;49136;47.416;19.402;2024-01-07T10:25:30;7.55;99.99
63051;SHT30;49136;47.416;19.402;2024-01-07T10:28:00;7.55;99.99
63051;SHT30;49136;47.416;19.402;2024-01-07T10:30:27;7.54;99.99
63051;SHT30;49136;47.416;19.402;2024-01-07T10:32:59;7.52;99.99
63051;SHT30;49136;47.416;19.402;2024-01-07T10:35:30;7.54;99.99
63051;SHT30;49136;47.416;19.402;2024-01-07T10:37:59;7.54;99.99
63051;SHT30;49136;47.416;19.402;2024-01-07T10:40:26;7.52;99.99
63051;SHT30;49136;47.416;19.402;2024-01-07T10:42:52;7.54;99.99
63051;SHT30;49136;47.416;19.402;2024-01-07T10:45:19;7.57;99.99
63051;SHT30;49136;47.416;19.402;2024-01-07T10:47:49;7.55;99.99
63051;SHT30;49136;47.416;19.402;2024-01-07T10:50:16;7.55;99.99
63051;SHT30;49136;47.416;19.402;2024-01-07T10:52:43;7.55;99.99
63051;SHT30;49136;47.416;19.402;2024-01-07T10:55:14;7.54;99.99
63051;SHT30;49136;47.416;19.402;2024-01-07T10:57:48;7.48;99.99
63051;SHT30;49136;47.416;19.402;2024-01-07T11:00:16;7.57;99.99
63051;SHT30;49136;47.416;19.402;2024-01-07T11:02:53;7.50;99.99
63051;SHT30;49136;47.416;19.402;2024-01-07T11:05:29;7.52;99.99
63051;SHT30;49136;47.416;19.402;2024-01-07T11:08:03;7.44;99.99
63051;SHT30;49136;47.416;19.402;2024-01-07T11:10:44;7.50;99.99
63051;SHT30;49136;47.416;19.402;2024-01-07T11:13:31;7.41;99.99
63051;SHT30;49136;47.416;19.402;2024-01-07T11:15:57;7.43;99.99
63051;SHT30;49136;47.416;19.402;2024-01-07T11:18:23;7.43;99.99
63051;SHT30;49136;47.416;19.402;2024-01-07T11:20:49;7.31;99.99
63051;SHT30;49136;47.416;19.402;2024-01-07T11:23:32;7.35;99.99
63051;SHT30;49136;47.416;19.402;2024-01-07T11:26:03;7.30;99.99
63051;SHT30;49136;47.416;19.402;2024-01-07T11:28:51;7.34;99.99
63051;SHT30;49136;47.416;19.402;2024-01-07T11:31:20;7.30;99.99
63051;SHT30;49136;47.416;19.402;2024-01-07T11:33:50;7.30;99.99
63051;SHT30;49136;47.416;19.402;2024-01-07T11:36:16;7.34;99.99
63051;SHT30;49136;47.416;19.402;2024-01-07T11:38:48;7.34;99.99
63051;SHT30;49136;47.416;19.402;2024-01-07T11:41:14;7.28;99.99
63051;SHT30;49136;47.416;19.402;2024-01-07T11:43:56;7.26;99.99
63051;SHT30;49136;47.416;19.402;2024-01-07T11:46:30;7.20;99.99
63051;SHT30;49136;47.416;19.402;2024-01-07T11:49:00;7.26;99.99
63051;SHT30;49136;47.416;19.402;2024-01-07T11:51:26;7.22;99.99
63051;SHT30;49136;47.416;19.402;2024-01-07T11:53:52;7.16;99.99
63051;SHT30;49136;47.416;19.402;2024-01-07T11:56:18;7.16;99.99
63051;SHT30;49136;47.416;19.402;2024-01-07T11:58:43;7.19;99.99
63051;SHT30;49136;47.416;19.402;2024-01-07T12:01:09;7.19;99.99
63051;SHT30;49136;47.416;19.402;2024-01-07T12:03:37;7.13;99.99
63051;SHT30;49136;47.416;19.402;2024-01-07T12:06:04;7.15;99.99
63051;SHT30;49136;47.416;19.402;2024-01-07T12:08:30;7.16;99.99
63051;SHT30;49136;47.416;19.402;2024-01-07T12:10:56;7.12;99.99
63051;SHT30;49136;47.416;19.402;2024-01-07T12:13:21;7.09;99.99
63051;SHT30;49136;47.416;19.402;2024-01-07T12:15:47;7.09;99.99
63051;SHT30;49136;47.416;19.402;2024-01-07T12:18:13;7.13;99.99
63051;SHT30;49136;47.416;19.402;2024-01-07T12:20:41;7.05;99.99
63051;SHT30;49136;47.416;19.402;2024-01-07T12:23:08;7.10;99.99
63051;SHT30;49136;47.416;19.402;2024-01-07T12:25:34;7.00;99.99
63051;SHT30;49136;47.416;19.402;2024-01-07T12:28:00;6.99;99.99
63051;SHT30;49136;47.416;19.402;2024-01-07T12:30:26;6.95;99.99
63051;SHT30;49136;47.416;19.402;2024-01-07T12:32:52;6.98;99.99
63051;SHT30;49136;47.416;19.402;2024-01-07T12:35:17;6.91;99.99
63051;SHT30;49136;47.416;19.402;2024-01-07T12:37:43;6.91;99.99
63051;SHT30;49136;47.416;19.402;2024-01-07T12:40:10;6.96;99.99
63051;SHT30;49136;47.416;19.402;2024-01-07T12:42:39;6.89;99.99
63051;SHT30;49136;47.416;19.402;2024-01-07T12:45:11;6.95;99.99
63051;SHT30;49136;47.416;19.402;2024-01-07T12:47:38;6.95;99.99
63051;SHT30;49136;47.416;19.402;2024-01-07T12:50:04;6.91;99.99
63051;SHT30;49136;47.416;19.402;2024-01-07T12:52:29;6.92;99.99
63051;SHT30;49136;47.416;19.402;2024-01-07T12:54:55;6.85;99.99
63051;SHT30;49136;47.416;19.402;2024-01-07T12:57:22;6.88;99.99
63051;SHT30;49136;47.416;19.402;2024-01-07T12:59:48;6.91;99.99
63051;SHT30;49136;47.416;19.402;2024-01-07T13:02:13;6.80;99.99
63051;SHT30;49136;47.416;19.402;2024-01-07T13:04:39;6.77;99.99
63051;SHT30;49136;47.416;19.402;2024-01-07T13:07:04;6.80;99.99
63051;SHT30;49136;47.416;19.402;2024-01-07T13:09:29;6.81;99.99
63051;SHT30;49136;47.416;19.402;2024-01-07T13:11:55;6.81;99.99
63051;SHT30;49136;47.416;19.402;2024-01-07T13:14:20;6.68;99.99
63051;SHT30;49136;47.416;19.402;2024-01-07T13:16:46;6.70;99.99
63051;SHT30;49136;47.416;19.402;2024-01-07T13:19:11;6.70;99.99
63051;SHT30;49136;47.416;19.402;2024-01-07T13:21:38;6.73;99.99
63051;SHT30;49136;47.416;19.402;2024-01-07T13:24:04;6.70;99.99
63051;SHT30;49136;47.416;19.402;2024-01-07T13:26:30;6.68;99.99
63051;SHT30;49136;47.416;19.402;2024-01-07T13:28:55;6.68;99.99
63051;SHT30;49136;47.416;19.402;2024-01-07T13:31:22;6.63;99.99
63051;SHT30;49136;47.416;19.402;2024-01-07T13:33:48;6.70;99.99
63051;SHT30;49136;47.416;19.402;2024-01-07T13:36:14;6.56;99.99
63051;SHT30;49136;47.416;19.402;2024-01-07T13:38:39;6.50;99.99
63051;SHT30;49136;47.416;19.402;2024-01-07T13:41:09;6.50;99.99
63051;SHT30;49136;47.416;19.402;2024-01-07T13:43:35;6.49;99.99
63051;SHT30;49136;47.416;19.402;2024-01-07T13:46:02;6.47;99.99
63051;SHT30;49136;47.416;19.402;2024-01-07T13:48:28;6.44;99.99
63051;SHT30;49136;47.416;19.402;2024-01-07T13:50:54;6.37;99.99
63051;SHT30;49136;47.416;19.402;2024-01-07T13:53:20;6.34;99.99
63051;SHT30;49136;47.416;19.402;2024-01-07T13:55:45;6.34;99.99
63051;SHT30;49136;47.416;19.402;2024-01-07T13:58:12;6.30;99.99
63051;SHT30;49136;47.416;19.402;2024-01-07T14:00:40;6.32;99.99
63051;SHT30;49136;47.416;19.402;2024-01-07T14:03:06;6.28;99.99
63051;SHT30;49136;47.416;19.402;2024-01-07T14:05:32;6.22;99.99
63051;SHT30;49136;47.416;19.402;2024-01-07T14:07:57;6.18;99.99
63051;SHT30;49136;47.416;19.402;2024-01-07T14:10:23;6.14;99.99
63051;SHT30;49136;47.416;19.402;2024-01-07T14:12:48;6.15;99.99
63051;SHT30;49136;47.416;19.402;2024-01-07T14:15:14;6.11;99.99
63051;SHT30;49136;47.416;19.402;2024-01-07T14:17:40;6.06;99.99
63051;SHT30;49136;47.416;19.402;2024-01-07T14:20:08;6.04;99.99
63051;SHT30;49136;47.416;19.402;2024-01-07T14:22:35;5.95;99.99
63051;SHT30;49136;47.416;19.402;2024-01-07T14:25:02;5.95;99.99
63051;SHT30;49136;47.416;19.402;2024-01-07T14:27:29;5.91;99.99
63051;SHT30;49136;47.416;19.402;2024-01-07T14:29:54;5.94;99.99
63051;SHT30;49136;47.416;19.402;2024-01-07T14:32:22;5.86;99.99
63051;SHT30;49136;47.416;19.402;2024-01-07T14:34:47;5.78;99.99
63051;SHT30;49136;47.416;19.402;2024-01-07T14:37:15;5.69;99.99
63051;SHT30;49136;47.416;19.402;2024-01-07T14:39:40;5.70;99.99
63051;SHT30;49136;47.416;19.402;2024-01-07T14:42:06;5.67;99.99
63051;SHT30;49136;47.416;19.402;2024-01-07T14:44:31;5.63;99.99
63051;SHT30;49136;47.416;19.402;2024-01-07T14:46:57;5.53;99.99
63051;SHT30;49136;47.416;19.402;2024-01-07T14:49:23;5.49;99.99
63051;SHT30;49136;47.416;19.402;2024-01-07T14:51:48;5.42;99.99
63051;SHT30;49136;47.416;19.402;2024-01-07T14:54:14;5.43;99.99
63051;SHT30;49136;47.416;19.402;2024-01-07T14:56:39;5.38;99.99
63051;SHT30;49136;47.416;19.402;2024-01-07T14:59:06;5.35;99.99
63051;SHT30;49136;47.416;19.402;2024-01-07T15:01:31;5.22;99.99
63051;SHT30;49136;47.416;19.402;2024-01-07T15:03:56;5.19;99.99
63051;SHT30;49136;47.416;19.402;2024-01-07T15:06:22;5.21;99.99
63051;SHT30;49136;47.416;19.402;2024-01-07T15:08:49;5.12;99.99
63051;SHT30;49136;47.416;19.402;2024-01-07T15:11:17;5.12;99.99
63051;SHT30;49136;47.416;19.402;2024-01-07T15:13:43;5.14;99.99
63051;SHT30;49136;47.416;19.402;2024-01-07T15:16:09;5.10;99.99
63051;SHT30;49136;47.416;19.402;2024-01-07T15:18:35;5.12;99.99
63051;SHT30;49136;47.416;19.402;2024-01-07T15:21:02;5.08;99.99
63051;SHT30;49136;47.416;19.402;2024-01-07T15:23:27;5.11;99.99
63051;SHT30;49136;47.416;19.402;2024-01-07T15:25:53;5.19;99.99